sensor_id;sensor_type;location;lat;lon;timestamp;pressure;altitude;pressure_sealevel;temperature;humidity
22862;BME280;11598;50.652;6.172;2023-02-24T00:08:17;96247.00;;;3.98;100.00
22862;BME280;11598;50.652;6.172;2023-02-24T00:18:17;96240.75;;;3.86;100.00
22862;BME280;11598;50.652;6.172;2023-02-24T00:28:18;96243.03;;;3.75;100.00
22862;BME280;11598;50.652;6.172;2023-02-24T00:38:18;96227.78;;;3.72;100.00
22862;BME280;11598;50.652;6.172;2023-02-24T00:48:19;96221.41;;;3.79;100.00
22862;BME280;11598;50.652;6.172;2023-02-24T00:58:19;96201.44;;;3.84;100.00
22862;BME280;11598;50.652;6.172;2023-02-24T01:08:19;96178.97;;;3.88;100.00
22862;BME280;11598;50.652;6.172;2023-02-24T01:18:22;96169.31;;;3.93;100.00
22862;BME280;11598;50.652;6.172;2023-02-24T01:28:22;96157.34;;;3.92;100.00
22862;BME280;11598;50.652;6.172;2023-02-24T01:38:23;96149.63;;;3.92;100.00
22862;BME280;11598;50.652;6.172;2023-02-24T01:48:23;96141.09;;;3.91;100.00
22862;BME280;11598;50.652;6.172;2023-02-24T01:58:26;96123.19;;;3.90;100.00
22862;BME280;11598;50.652;6.172;2023-02-24T02:08:27;96119.78;;;3.89;100.00
22862;BME280;11598;50.652;6.172;2023-02-24T02:19:10;96114.06;;;3.84;100.00
22862;BME280;11598;50.652;6.172;2023-02-24T02:40:20;96090.31;;;3.47;100.00
22862;BME280;11598;50.652;6.172;2023-02-24T02:50:37;96090.19;;;3.33;100.00
22862;BME280;11598;50.652;6.172;2023-02-24T03:00:51;96065.56;;;3.13;100.00
22862;BME280;11598;50.652;6.172;2023-02-24T03:11:03;96068.28;;;2.92;100.00
22862;BME280;11598;50.652;6.172;2023-02-24T03:21:17;96053.44;;;2.82;100.00
22862;BME280;11598;50.652;6.172;2023-02-24T03:31:36;96041.69;;;2.78;100.00
22862;BME280;11598;50.652;6.172;2023-02-24T03:41:50;96033.59;;;2.50;100.00
22862;BME280;11598;50.652;6.172;2023-02-24T04:02:33;96031.94;;;2.15;100.00
22862;BME280;11598;50.652;6.172;2023-02-24T04:13:03;96031.66;;;2.02;100.00
22862;BME280;11598;50.652;6.172;2023-02-24T04:23:10;96013.13;;;1.97;100.00
22862;BME280;11598;50.652;6.172;2023-02-24T04:33:12;96004.06;;;1.89;100.00
22862;BME280;11598;50.652;6.172;2023-02-24T04:43:13;95997.22;;;1.90;100.00
22862;BME280;11598;50.652;6.172;2023-02-24T04:53:15;95992.19;;;1.88;100.00
22862;BME280;11598;50.652;6.172;2023-02-24T05:03:16;95988.53;;;1.93;100.00
22862;BME280;11598;50.652;6.172;2023-02-24T05:13:27;95989.91;;;1.82;100.00
22862;BME280;11598;50.652;6.172;2023-02-24T05:23:33;95965.94;;;1.83;100.00
22862;BME280;11598;50.652;6.172;2023-02-24T05:33:37;95968.28;;;1.88;100.00
22862;BME280;11598;50.652;6.172;2023-02-24T05:43:38;95967.00;;;1.79;100.00
22862;BME280;11598;50.652;6.172;2023-02-24T05:53:38;95939.81;;;1.77;100.00
22862;BME280;11598;50.652;6.172;2023-02-24T06:03:43;95940.31;;;1.83;100.00
22862;BME280;11598;50.652;6.172;2023-02-24T06:13:47;95932.94;;;1.77;100.00
22862;BME280;11598;50.652;6.172;2023-02-24T06:23:47;95928.72;;;1.76;100.00
22862;BME280;11598;50.652;6.172;2023-02-24T06:33:48;95928.59;;;1.79;100.00
22862;BME280;11598;50.652;6.172;2023-02-24T06:43:50;95914.78;;;1.82;100.00
22862;BME280;11598;50.652;6.172;2023-02-24T06:53:51;95916.38;;;1.84;100.00
22862;BME280;11598;50.652;6.172;2023-02-24T07:03:54;95903.56;;;1.84;100.00
22862;BME280;11598;50.652;6.172;2023-02-24T07:14:08;95904.09;;;1.91;100.00
22862;BME280;11598;50.652;6.172;2023-02-24T07:24:10;95900.41;;;1.97;100.00
22862;BME280;11598;50.652;6.172;2023-02-24T07:34:23;95904.53;;;1.99;100.00
22862;BME280;11598;50.652;6.172;2023-02-24T07:44:24;95899.09;;;1.88;100.00
22862;BME280;11598;50.652;6.172;2023-02-24T07:54:26;95884.59;;;1.88;100.00
22862;BME280;11598;50.652;6.172;2023-02-24T08:04:29;95874.03;;;1.95;100.00
22862;BME280;11598;50.652;6.172;2023-02-24T08:14:31;95865.97;;;2.02;100.00
22862;BME280;11598;50.652;6.172;2023-02-24T08:24:34;95850.34;;;2.07;100.00
22862;BME280;11598;50.652;6.172;2023-02-24T08:34:36;95831.13;;;2.16;100.00
22862;BME280;11598;50.652;6.172;2023-02-24T08:44:36;95807.53;;;2.26;100.00
22862;BME280;11598;50.652;6.172;2023-02-24T08:54:36;95797.38;;;2.41;100.00
22862;BME280;11598;50.652;6.172;2023-02-24T09:05:00;95786.63;;;2.50;100.00
22862;BME280;11598;50.652;6.172;2023-02-24T09:15:04;95779.03;;;2.64;100.00
22862;BME280;11598;50.652;6.172;2023-02-24T09:25:10;95768.53;;;2.69;100.00
22862;BME280;11598;50.652;6.172;2023-02-24T09:35:39;95775.13;;;2.57;100.00
22862;BME280;11598;50.652;6.172;2023-02-24T09:45:50;95774.47;;;2.53;100.00
22862;BME280;11598;50.652;6.172;2023-02-24T09:55:56;95756.00;;;2.47;100.00
22862;BME280;11598;50.652;6.172;2023-02-24T10:06:25;95746.44;;;2.66;100.00
22862;BME280;11598;50.652;6.172;2023-02-24T10:16:40;95735.56;;;2.93;100.00
22862;BME280;11598;50.652;6.172;2023-02-24T10:26:51;95727.22;;;3.20;100.00
22862;BME280;11598;50.652;6.172;2023-02-24T10:36:52;95718.47;;;3.38;100.00
22862;BME280;11598;50.652;6.172;2023-02-24T10:47:09;95719.50;;;3.20;100.00
22862;BME280;11598;50.652;6.172;2023-02-24T10:57:13;95707.03;;;3.13;100.00
22862;BME280;11598;50.652;6.172;2023-02-24T11:07:35;95679.94;;;3.38;100.00
22862;BME280;11598;50.652;6.172;2023-02-24T11:17:56;95676.47;;;3.39;100.00
22862;BME280;11598;50.652;6.172;2023-02-24T11:27:57;95656.94;;;3.36;100.00
22862;BME280;11598;50.652;6.172;2023-02-24T11:38:24;95637.09;;;3.24;100.00
22862;BME280;11598;50.652;6.172;2023-02-24T11:48:33;95626.94;;;3.23;100.00
22862;BME280;11598;50.652;6.172;2023-02-24T11:58:42;95615.84;;;3.22;100.00
22862;BME280;11598;50.652;6.172;2023-02-24T12:08:48;95594.13;;;3.28;100.00
22862;BME280;11598;50.652;6.172;2023-02-24T13:00:27;95537.72;;;2.83;100.00
22862;BME280;11598;50.652;6.172;2023-02-24T13:21:20;95504.06;;;2.45;100.00
22862;BME280;11598;50.652;6.172;2023-02-24T13:31:25;95493.19;;;2.25;100.00
22862;BME280;11598;50.652;6.172;2023-02-24T14:01:45;95478.44;;;2.15;100.00
22862;BME280;11598;50.652;6.172;2023-02-24T14:11:49;95465.31;;;2.05;100.00
22862;BME280;11598;50.652;6.172;2023-02-24T14:21:53;95450.28;;;1.99;100.00
22862;BME280;11598;50.652;6.172;2023-02-24T14:31:55;95446.59;;;1.88;100.00
22862;BME280;11598;50.652;6.172;2023-02-24T14:53:02;95418.84;;;1.81;100.00
22862;BME280;11598;50.652;6.172;2023-02-24T15:03:09;95415.56;;;1.79;100.00
22862;BME280;11598;50.652;6.172;2023-02-24T15:13:36;95418.59;;;1.85;100.00
22862;BME280;11598;50.652;6.172;2023-02-24T15:23:37;95421.66;;;1.76;100.00
22862;BME280;11598;50.652;6.172;2023-02-24T15:33:41;95417.97;;;1.66;100.00
22862;BME280;11598;50.652;6.172;2023-02-24T15:43:53;95410.81;;;1.57;100.00
22862;BME280;11598;50.652;6.172;2023-02-24T15:53:55;95389.09;;;1.48;100.00
22862;BME280;11598;50.652;6.172;2023-02-24T16:03:55;95391.66;;;1.48;100.00
22862;BME280;11598;50.652;6.172;2023-02-24T16:13:57;95389.19;;;1.46;100.00
22862;BME280;11598;50.652;6.172;2023-02-24T16:23:58;95394.16;;;1.34;100.00
22862;BME280;11598;50.652;6.172;2023-02-24T16:33:59;95360.00;;;1.35;100.00
22862;BME280;11598;50.652;6.172;2023-02-24T16:43:59;95379.03;;;1.45;100.00
22862;BME280;11598;50.652;6.172;2023-02-24T16:54:00;95372.47;;;1.55;100.00
22862;BME280;11598;50.652;6.172;2023-02-24T17:04:00;95369.41;;;1.64;100.00
22862;BME280;11598;50.652;6.172;2023-02-24T17:14:00;95349.25;;;1.74;100.00
22862;BME280;11598;50.652;6.172;2023-02-24T17:24:01;95364.06;;;1.83;100.00
22862;BME280;11598;50.652;6.172;2023-02-24T17:34:01;95366.94;;;1.93;100.00
22862;BME280;11598;50.652;6.172;2023-02-24T17:44:02;95367.31;;;2.01;100.00
22862;BME280;11598;50.652;6.172;2023-02-24T17:54:02;95396.16;;;2.05;100.00
22862;BME280;11598;50.652;6.172;2023-02-24T18:04:02;95377.84;;;2.11;100.00
22862;BME280;11598;50.652;6.172;2023-02-24T18:14:03;95387.94;;;2.14;100.00
22862;BME280;11598;50.652;6.172;2023-02-24T18:24:03;95398.63;;;2.21;100.00
22862;BME280;11598;50.652;6.172;2023-02-24T18:34:04;95399.28;;;2.24;100.00
22862;BME280;11598;50.652;6.172;2023-02-24T18:44:05;95411.09;;;2.27;100.00
22862;BME280;11598;50.652;6.172;2023-02-24T18:54:05;95403.47;;;2.25;100.00
22862;BME280;11598;50.652;6.172;2023-02-24T19:04:06;95398.75;;;2.19;100.00
22862;BME280;11598;50.652;6.172;2023-02-24T19:14:09;95424.69;;;2.13;100.00
22862;BME280;11598;50.652;6.172;2023-02-24T19:24:10;95418.84;;;2.11;100.00
22862;BME280;11598;50.652;6.172;2023-02-24T19:34:13;95432.31;;;2.15;100.00
22862;BME280;11598;50.652;6.172;2023-02-24T19:44:14;95414.44;;;2.13;100.00
22862;BME280;11598;50.652;6.172;2023-02-24T19:54:14;95419.91;;;2.07;100.00
22862;BME280;11598;50.652;6.172;2023-02-24T20:04:15;95430.50;;;1.86;100.00
22862;BME280;11598;50.652;6.172;2023-02-24T20:14:17;95442.88;;;1.78;100.00
22862;BME280;11598;50.652;6.172;2023-02-24T20:24:18;95451.19;;;1.36;100.00
22862;BME280;11598;50.652;6.172;2023-02-24T20:34:18;95457.06;;;0.73;100.00
22862;BME280;11598;50.652;6.172;2023-02-24T20:44:19;95461.94;;;0.77;100.00
22862;BME280;11598;50.652;6.172;2023-02-24T20:54:19;95449.78;;;0.98;100.00
22862;BME280;11598;50.652;6.172;2023-02-24T21:04:20;95468.00;;;1.08;100.00
22862;BME280;11598;50.652;6.172;2023-02-24T21:14:21;95473.00;;;1.27;100.00
22862;BME280;11598;50.652;6.172;2023-02-24T21:24:22;95474.22;;;1.36;100.00
22862;BME280;11598;50.652;6.172;2023-02-24T21:34:23;95480.09;;;1.38;100.00
22862;BME280;11598;50.652;6.172;2023-02-24T21:44:23;95502.13;;;1.40;100.00
22862;BME280;11598;50.652;6.172;2023-02-24T21:54:24;95506.50;;;1.38;100.00
22862;BME280;11598;50.652;6.172;2023-02-24T22:04:29;95482.72;;;1.36;100.00
22862;BME280;11598;50.652;6.172;2023-02-24T22:14:30;95491.16;;;1.38;100.00
22862;BME280;11598;50.652;6.172;2023-02-24T22:24:30;95502.72;;;1.30;100.00
22862;BME280;11598;50.652;6.172;2023-02-24T22:34:30;95496.94;;;1.26;100.00
22862;BME280;11598;50.652;6.172;2023-02-24T22:44:31;95505.84;;;1.19;100.00
22862;BME280;11598;50.652;6.172;2023-02-24T22:54:31;95524.22;;;1.10;100.00
22862;BME280;11598;50.652;6.172;2023-02-24T23:04:31;95517.69;;;1.04;100.00
22862;BME280;11598;50.652;6.172;2023-02-24T23:14:34;95524.63;;;1.02;100.00
22862;BME280;11598;50.652;6.172;2023-02-24T23:24:35;95526.19;;;1.04;100.00
22862;BME280;11598;50.652;6.172;2023-02-24T23:34:35;95522.66;;;1.07;100.00
22862;BME280;11598;50.652;6.172;2023-02-24T23:44:36;95537.19;;;1.07;100.00
22862;BME280;11598;50.652;6.172;2023-02-24T23:54:38;95556.13;;;1.02;100.00
